Airfield :
LOGIN :

Register | Disclaimer

   EN    FR    IT 

 










Legend :    VFR   Marginal VFR   IFR   Intensive IFR   Very Intensive IFR
Visi :
Ceiling :
>= 8 km
>= 3000ft
5 to 8 km
1000 to 3000 ft
1500m to 5 km
500 to 1000 ft
800 to 1500m
200 to 500 ft
< 800m
< 200 ft
Symbols :   Thunderstorms  Fog  Heavy snow  Heavy precipitations  Wind > 20 kt
SIGMETs :     Misc.  Thunderstorms  Icing  Turbulence  Mountain Waves  Volcanic Ashes







- Airport Elevation : 194 ft


EBCV - Chièvres

CURRENT METAR :
  • 140355Z AUTO 25015KT 9999 NCD 04/M00 Q0995 BLU

EXPIRED METARs :
  • 140325Z AUTO 26017KT 9999 FEW037/// 04/M01 Q0995 BLU
  • 140255Z AUTO 26020KT 9999 BKN035/// 04/00 Q0994 BLU
  • 140225Z AUTO 26021KT 9999 OVC030/// 05/01 Q0993 BLU
  • 140155Z AUTO 25014KT 9999 -DZ BKN027/// 04/02 Q0992 BLU
  • 140125Z AUTO 24018G28KT 9999 FEW023/// BKN130/// 04/02 Q0991 BLU
  • 140124Z AUTO 24018KT 9999 FEW023/// BKN130/// 04/02 Q0991 BLU
  • 140104Z AUTO 23016KT 9999 BKN024/// BKN077/// BKN140/// 03/02 Q0991 WHT

TAF TAF EBCV
Valid from the 13 at 19:00 until the 14 at 07:00 UTC


131541Z 1319/1407 27020KT 9999 FEW015
TEMPO 1321/1401 24025G35KT 5000 -SHRA BKN008
BECMG 1404/1406 26015KT 9999 FEW015 BKN025 BY EBWM
No reported NOTAMs for that airfield.
1 SIGMET reported for the Brussels FIR (EBBU) :
 
Severe turbulence
EBBU SIGMET 05 VALID 140000/140400 EBBR
EBBU BRUSSELS FIR SEV TURB FCST ENTIRE FIR SFC/FL050 STNR WKN=



MET'MAP, your aeronautical weather chart ! - Copyright ORBIFLY December 2007 - Disclaimer

ORBIFLY MET'MAP TEAM :

Programming & Development : Alexandra Zaïnal
Concept & Development : Baudouin d'Aumeries
Co-Development & Prog : Marc-Olivier Méhu
Technical & hardware support : Manuel Goepfert

Contact : metmap@orbifly.com




SOURCES & CREDITS :

   NOAA